createdAt,value
2018-07-02T00:00:09.002Z,91.50
2018-07-02T00:02:37.514Z,91.60
2018-07-02T00:05:06.320Z,91.40
2018-07-02T00:07:35.500Z,91.80
2018-07-02T00:10:04.247Z,91.90
2018-07-02T00:12:32.794Z,91.30
2018-07-02T00:15:01.270Z,91.50
2018-07-02T00:17:30.485Z,91.60
2018-07-02T00:19:59.533Z,91.70
2018-07-02T00:22:28.069Z,91.90
2018-07-02T00:24:56.633Z,92.00
2018-07-02T00:27:25.151Z,92.00
2018-07-02T00:29:53.556Z,92.20
2018-07-02T00:32:22.799Z,92.20
2018-07-02T00:34:51.561Z,92.30
2018-07-02T00:37:20.054Z,92.30
2018-07-02T00:39:48.788Z,92.30
2018-07-02T00:42:17.378Z,92.40
2018-07-02T00:44:45.806Z,92.40
2018-07-02T00:47:14.298Z,92.40
2018-07-02T00:49:42.821Z,92.50
2018-07-02T00:52:11.424Z,92.50
2018-07-02T00:54:39.956Z,92.60
2018-07-02T00:57:08.421Z,92.50
2018-07-02T00:59:37.068Z,92.60
2018-07-02T01:02:06.270Z,92.50
2018-07-02T01:04:34.749Z,92.50
2018-07-02T01:07:03.244Z,92.80
2018-07-02T01:09:32.143Z,92.70
2018-07-02T01:12:00.613Z,92.70
2018-07-02T01:14:29.113Z,92.50
2018-07-02T01:16:57.630Z,92.60
2018-07-02T01:19:26.144Z,92.20
2018-07-02T01:21:54.655Z,92.30
2018-07-02T01:24:23.639Z,91.80
2018-07-02T01:26:52.168Z,91.80
2018-07-02T01:29:21.344Z,91.50
2018-07-02T01:31:50.030Z,91.70
2018-07-02T01:34:18.633Z,91.20
2018-07-02T01:36:47.078Z,91.50
2018-07-02T01:39:15.653Z,91.00
2018-07-02T01:41:45.292Z,91.00
2018-07-02T01:44:13.785Z,90.90
2018-07-02T01:46:42.348Z,90.60
2018-07-02T01:49:10.856Z,91.00
2018-07-02T01:51:39.283Z,90.90
2018-07-02T01:54:07.819Z,90.90
2018-07-02T01:56:36.337Z,91.00
2018-07-02T01:59:04.919Z,91.10
2018-07-02T02:01:34.102Z,91.10
2018-07-02T02:04:02.576Z,91.20
2018-07-02T02:06:31.030Z,91.30
2018-07-02T02:08:59.518Z,91.60
2018-07-02T02:11:28.075Z,91.50
2018-07-02T02:13:56.566Z,91.50
2018-07-02T02:16:25.724Z,91.50
2018-07-02T02:18:55.009Z,91.70
2018-07-02T02:21:23.458Z,91.80
2018-07-02T02:23:51.978Z,91.70
2018-07-02T02:26:20.528Z,91.70
2018-07-02T02:28:48.985Z,91.70
2018-07-02T02:31:17.472Z,91.90
2018-07-02T02:33:45.900Z,91.60
2018-07-02T02:36:14.416Z,91.60
2018-07-02T02:38:42.844Z,91.30
2018-07-02T02:41:11.307Z,91.40
2018-07-02T02:43:39.808Z,91.60
2018-07-02T02:46:08.426Z,91.50
2018-07-02T02:48:36.854Z,91.50
2018-07-02T02:51:05.462Z,91.70
2018-07-02T02:53:34.091Z,91.70
2018-07-02T02:56:02.577Z,92.00
2018-07-02T02:58:31.127Z,92.30
2018-07-02T03:00:59.727Z,92.40
2018-07-02T03:03:28.200Z,92.60
2018-07-02T03:05:56.658Z,92.60
2018-07-02T03:08:25.142Z,92.80
2018-07-02T03:10:53.738Z,92.70
2018-07-02T03:13:22.199Z,92.70
2018-07-02T03:15:50.593Z,92.60
2018-07-02T03:18:19.020Z,92.80
2018-07-02T03:20:47.555Z,93.20
2018-07-02T03:23:16.018Z,93.30
2018-07-02T03:25:44.438Z,93.60
2018-07-02T03:28:12.879Z,93.90
2018-07-02T03:30:41.296Z,94.10
2018-07-02T03:33:09.853Z,94.50
2018-07-02T03:35:38.450Z,94.80
2018-07-02T03:38:07.145Z,94.90
2018-07-02T03:40:35.694Z,95.10
2018-07-02T03:43:04.124Z,95.10
2018-07-02T03:45:32.566Z,95.30
2018-07-02T03:48:01.149Z,95.40
2018-07-02T03:50:29.585Z,95.20
2018-07-02T03:52:58.844Z,95.40
2018-07-02T03:55:27.316Z,95.40
2018-07-02T03:57:55.814Z,95.30
2018-07-02T04:00:24.898Z,95.30
2018-07-02T04:02:53.339Z,95.30
2018-07-02T04:05:21.863Z,95.50
2018-07-02T04:07:50.335Z,95.50
2018-07-02T04:10:18.764Z,95.40
2018-07-02T04:12:47.770Z,95.40
2018-07-02T04:15:16.259Z,95.50
2018-07-02T04:17:44.698Z,95.60
2018-07-02T04:20:13.410Z,95.60
2018-07-02T04:22:41.828Z,95.40
2018-07-02T04:25:10.244Z,95.00
2018-07-02T04:27:38.789Z,95.40
2018-07-02T04:30:07.409Z,95.00
2018-07-02T04:32:35.943Z,95.30
2018-07-02T04:35:04.558Z,94.90
2018-07-02T04:37:33.651Z,95.40
2018-07-02T04:40:02.091Z,95.20
2018-07-02T04:42:30.636Z,95.30
2018-07-02T04:44:59.196Z,95.00
2018-07-02T04:47:27.679Z,94.60
2018-07-02T04:49:56.220Z,95.00
2018-07-02T04:52:24.820Z,94.90
2018-07-02T04:54:53.784Z,95.40
2018-07-02T04:57:22.241Z,95.00
2018-07-02T04:59:50.744Z,94.80
2018-07-02T05:02:19.401Z,95.10
2018-07-02T05:04:47.825Z,95.20
2018-07-02T05:07:16.239Z,94.80
2018-07-02T05:09:45.358Z,94.90
2018-07-02T05:12:13.954Z,94.50
2018-07-02T05:14:43.344Z,94.50
2018-07-02T05:17:11.761Z,94.00
2018-07-02T05:19:40.912Z,93.90
2018-07-02T05:22:09.353Z,94.10
2018-07-02T05:24:37.947Z,93.50
2018-07-02T05:27:06.514Z,94.10
2018-07-02T05:29:35.386Z,94.20
2018-07-02T05:32:03.850Z,93.90
2018-07-02T05:34:32.538Z,94.00
2018-07-02T05:37:01.130Z,94.40
2018-07-02T05:39:29.546Z,94.30
2018-07-02T05:41:58.011Z,93.90
2018-07-02T05:44:26.618Z,94.00
2018-07-02T05:46:55.052Z,93.10
2018-07-02T05:49:23.494Z,92.90
2018-07-02T05:51:52.014Z,93.00
2018-07-02T05:54:20.483Z,92.70
2018-07-02T05:56:49.047Z,92.30
2018-07-02T05:59:17.458Z,91.60
2018-07-02T06:01:45.924Z,91.20
2018-07-02T06:04:14.397Z,90.80
2018-07-02T06:06:42.902Z,90.70
2018-07-02T06:09:13.169Z,90.20
2018-07-02T06:14:40.512Z,90.00
2018-07-02T06:17:09.108Z,89.40
2018-07-02T06:19:38.174Z,89.50
2018-07-02T06:22:06.661Z,89.60
2018-07-02T06:24:35.162Z,90.30
2018-07-02T06:27:03.721Z,88.90
2018-07-02T06:29:32.908Z,88.80
2018-07-02T06:32:01.457Z,87.70
2018-07-02T06:34:29.937Z,88.20
2018-07-02T06:36:58.454Z,88.00
2018-07-02T06:39:26.992Z,87.60
2018-07-02T06:41:55.457Z,86.70
2018-07-02T06:44:23.829Z,86.20
2018-07-02T06:46:52.340Z,85.50
2018-07-02T06:49:20.989Z,87.30
2018-07-02T06:51:49.414Z,84.90
2018-07-02T06:54:17.876Z,85.30
2018-07-02T06:56:46.313Z,85.70
2018-07-02T06:59:14.934Z,86.60
2018-07-02T07:01:43.409Z,85.10
2018-07-02T07:04:11.949Z,83.90
2018-07-02T07:06:40.413Z,82.60
2018-07-02T07:09:10.053Z,84.30
2018-07-02T07:11:38.589Z,84.00
2018-07-02T07:14:07.780Z,82.50
2018-07-02T07:16:37.709Z,83.50
2018-07-02T07:19:06.185Z,83.40
2018-07-02T07:21:34.589Z,79.20
2018-07-02T07:24:04.216Z,80.00
2018-07-02T07:26:32.672Z,79.90
2018-07-02T07:29:01.120Z,79.00
2018-07-02T07:31:29.509Z,78.40
2018-07-02T07:33:58.017Z,78.00
2018-07-02T07:36:26.473Z,79.10
2018-07-02T07:38:54.848Z,78.10
2018-07-02T07:41:23.319Z,78.90
2018-07-02T07:43:52.006Z,76.40
2018-07-02T07:46:20.422Z,76.20
2018-07-02T07:48:49.726Z,74.20
2018-07-02T07:51:18.158Z,73.30
2018-07-02T07:53:46.701Z,73.80
2018-07-02T07:56:15.216Z,73.30
2018-07-02T07:58:43.725Z,74.00
2018-07-02T08:01:12.956Z,72.80
2018-07-02T08:03:41.984Z,74.10
2018-07-02T08:06:10.381Z,73.10
2018-07-02T08:08:38.811Z,71.70
2018-07-02T08:11:07.253Z,68.70
2018-07-02T08:13:35.815Z,69.80
2018-07-02T08:16:05.035Z,67.10
2018-07-02T08:18:33.872Z,65.10
2018-07-02T08:21:02.329Z,65.00
2018-07-02T08:23:31.354Z,64.30
2018-07-02T08:26:00.114Z,62.80
2018-07-02T08:28:28.597Z,62.50
2018-07-02T08:30:57.256Z,61.40
2018-07-02T08:33:25.748Z,63.20
2018-07-02T08:35:54.989Z,61.40
2018-07-02T08:38:23.478Z,61.90
2018-07-02T08:40:52.137Z,62.20
2018-07-02T08:43:20.679Z,62.00
2018-07-02T08:45:49.222Z,59.90
2018-07-02T08:48:17.670Z,59.80
2018-07-02T08:50:46.446Z,60.30
2018-07-02T08:53:14.920Z,59.80
2018-07-02T08:55:43.744Z,58.40
2018-07-02T08:58:12.321Z,59.00
2018-07-02T09:00:40.790Z,57.30
2018-07-02T09:03:09.899Z,55.80
2018-07-02T09:05:38.459Z,56.30
2018-07-02T09:08:06.869Z,59.30
2018-07-02T09:10:35.384Z,57.10
2018-07-02T09:13:04.073Z,58.00
2018-07-02T09:15:32.366Z,58.20
2018-07-02T09:18:01.562Z,58.70
2018-07-02T09:20:31.210Z,58.40
2018-07-02T09:22:59.677Z,57.00
2018-07-02T09:25:28.122Z,56.80
2018-07-02T09:27:56.521Z,54.50
2018-07-02T09:30:24.935Z,56.10
2018-07-02T09:32:53.492Z,53.00
2018-07-02T09:35:21.919Z,57.40
2018-07-02T09:37:50.406Z,57.00
2018-07-02T09:40:18.857Z,50.10
2018-07-02T09:42:47.401Z,53.10
2018-07-02T09:45:15.921Z,53.60
2018-07-02T09:47:44.342Z,55.20
2018-07-02T09:50:12.877Z,52.30
2018-07-02T09:52:41.385Z,54.30
2018-07-02T09:55:09.909Z,55.50
2018-07-02T09:57:38.365Z,52.30
2018-07-02T10:00:07.021Z,54.90
2018-07-02T10:02:35.576Z,55.30
2018-07-02T10:05:04.059Z,53.30
2018-07-02T10:07:32.597Z,51.40
2018-07-02T10:10:01.033Z,51.00
2018-07-02T10:12:29.591Z,48.20
2018-07-02T10:14:58.716Z,48.70
2018-07-02T10:17:27.881Z,48.50
2018-07-02T10:19:56.858Z,50.70
2018-07-02T10:22:25.293Z,48.80
2018-07-02T10:24:53.781Z,49.60
2018-07-02T10:27:22.221Z,45.90
2018-07-02T10:29:50.797Z,51.30
2018-07-02T10:32:19.377Z,48.20
2018-07-02T10:34:48.302Z,49.60
2018-07-02T10:37:17.389Z,51.40
2018-07-02T10:39:45.889Z,48.30
2018-07-02T10:42:14.378Z,48.30
2018-07-02T10:44:42.990Z,56.30
2018-07-02T10:47:11.535Z,52.30
2018-07-02T10:49:40.013Z,48.60
2018-07-02T10:52:08.556Z,46.60
2018-07-02T10:54:37.006Z,49.50
2018-07-02T10:57:06.046Z,47.80
2018-07-02T10:59:34.654Z,53.20
2018-07-02T11:02:04.013Z,47.10
2018-07-02T11:04:32.488Z,47.40
2018-07-02T11:07:01.730Z,49.70
2018-07-02T11:09:30.211Z,49.20
2018-07-02T11:11:58.778Z,48.20
2018-07-02T11:14:27.250Z,46.50
2018-07-02T11:16:55.773Z,45.80
2018-07-02T11:19:24.192Z,46.30
2018-07-02T11:21:52.793Z,48.10
2018-07-02T11:24:21.291Z,49.50
2018-07-02T11:26:49.693Z,46.10
2018-07-02T11:29:18.107Z,47.60
2018-07-02T11:31:46.674Z,44.90
2018-07-02T11:34:15.124Z,45.60
2018-07-02T11:36:43.600Z,48.20
2018-07-02T11:39:12.493Z,47.00
2018-07-02T11:41:41.792Z,46.70
2018-07-02T11:44:10.345Z,47.20
2018-07-02T11:46:38.719Z,45.60
2018-07-02T11:49:07.172Z,46.40
2018-07-02T11:51:36.181Z,45.00
2018-07-02T11:54:04.801Z,45.00
2018-07-02T11:56:33.259Z,45.80
2018-07-02T11:59:01.708Z,44.90
2018-07-02T12:01:30.155Z,44.40
2018-07-02T12:03:58.657Z,45.70
2018-07-02T12:06:27.181Z,45.80
2018-07-02T12:08:55.650Z,45.00
2018-07-02T12:11:24.317Z,47.60
2018-07-02T12:13:52.875Z,46.50
2018-07-02T12:16:21.469Z,46.30
2018-07-02T12:18:49.907Z,45.50
2018-07-02T12:21:18.392Z,44.60
2018-07-02T12:23:46.825Z,45.50
2018-07-02T12:26:16.161Z,46.40
2018-07-02T12:28:44.587Z,45.40
2018-07-02T12:31:13.330Z,45.90
2018-07-02T12:33:41.835Z,45.90
2018-07-02T12:36:10.358Z,46.10
2018-07-02T12:38:38.949Z,45.80
2018-07-02T12:41:07.510Z,47.40
2018-07-02T12:43:35.990Z,47.00
2018-07-02T12:46:04.538Z,47.30
2018-07-02T12:48:33.246Z,46.50
2018-07-02T12:51:01.632Z,48.70
2018-07-02T12:53:30.084Z,46.80
2018-07-02T12:55:58.544Z,47.90
2018-07-02T12:58:27.116Z,48.60
2018-07-02T13:00:55.558Z,49.00
2018-07-02T13:03:24.811Z,46.00
2018-07-02T13:05:53.307Z,46.70
2018-07-02T13:08:21.805Z,46.40
2018-07-02T13:10:50.409Z,46.90
2018-07-02T13:13:18.878Z,46.60
2018-07-02T13:15:47.392Z,46.20
2018-07-02T13:18:16.321Z,47.60
2018-07-02T13:20:45.532Z,45.10
2018-07-02T13:23:13.926Z,48.00
2018-07-02T13:25:42.471Z,45.90
2018-07-02T13:28:10.963Z,46.30
2018-07-02T13:30:39.514Z,46.00
2018-07-02T13:33:07.922Z,47.40
2018-07-02T13:35:36.422Z,46.50
2018-07-02T13:38:04.921Z,45.60
2018-07-02T13:40:33.395Z,46.50
2018-07-02T13:43:02.557Z,45.90
2018-07-02T13:45:30.986Z,45.60
2018-07-02T13:47:59.519Z,47.50
2018-07-02T13:50:28.437Z,47.10
2018-07-02T13:52:56.907Z,47.30
2018-07-02T13:55:25.472Z,46.70
2018-07-02T13:57:53.988Z,46.20
2018-07-02T14:00:22.517Z,45.50
2018-07-02T14:02:51.038Z,45.00
2018-07-02T14:05:19.505Z,47.20
2018-07-02T14:07:48.060Z,46.30
2018-07-02T14:10:17.233Z,46.90
2018-07-02T14:12:46.460Z,46.70
2018-07-02T14:15:14.950Z,45.90
2018-07-02T14:17:43.524Z,45.50
2018-07-02T14:20:12.082Z,46.30
2018-07-02T14:22:40.628Z,44.60
2018-07-02T14:25:09.054Z,46.00
2018-07-02T14:27:37.579Z,44.40
2018-07-02T14:30:06.849Z,46.60
2018-07-02T14:32:35.916Z,46.70
2018-07-02T14:35:04.475Z,47.80
2018-07-02T14:37:32.904Z,46.10
2018-07-02T14:40:01.549Z,47.10
2018-07-02T14:42:30.091Z,46.50
2018-07-02T14:44:58.649Z,47.00
2018-07-02T14:47:27.705Z,47.30
2018-07-02T14:49:56.254Z,45.10
2018-07-02T14:52:24.902Z,44.50
2018-07-02T14:54:54.288Z,46.50
2018-07-02T14:57:22.798Z,47.30
2018-07-02T14:59:51.335Z,46.50
2018-07-02T15:02:20.000Z,44.70
2018-07-02T15:04:48.496Z,45.00
2018-07-02T15:07:16.958Z,44.80
2018-07-02T15:09:45.599Z,46.00
2018-07-02T15:12:14.202Z,45.30
2018-07-02T15:14:42.653Z,44.30
2018-07-02T15:17:11.200Z,44.80
2018-07-02T15:19:39.612Z,46.20
2018-07-02T15:22:08.169Z,45.30
2018-07-02T15:24:36.681Z,46.20
2018-07-02T15:27:05.358Z,44.70
2018-07-02T15:29:33.812Z,45.70
2018-07-02T15:32:02.336Z,45.80
2018-07-02T15:34:30.788Z,45.70
2018-07-02T15:36:59.244Z,48.50
2018-07-02T15:39:27.758Z,45.60
2018-07-02T15:41:56.293Z,45.20
2018-07-02T15:44:24.823Z,45.00
2018-07-02T15:46:53.330Z,44.80
2018-07-02T15:49:22.100Z,45.20
2018-07-02T15:51:51.278Z,45.10
2018-07-02T15:54:19.837Z,45.20
2018-07-02T15:56:48.328Z,44.70
2018-07-02T15:59:16.801Z,45.90
2018-07-02T16:01:45.220Z,46.90
2018-07-02T16:04:13.705Z,45.50
2018-07-02T16:06:42.203Z,46.60
2018-07-02T16:09:11.721Z,44.70
2018-07-02T16:11:40.516Z,46.80
2018-07-02T16:14:09.059Z,46.70
2018-07-02T16:16:37.631Z,44.70
2018-07-02T16:19:06.225Z,45.50
2018-07-02T16:21:34.727Z,46.30
2018-07-02T16:24:03.249Z,44.80
2018-07-02T16:26:31.700Z,44.10
2018-07-02T16:29:00.312Z,45.40
2018-07-02T16:31:28.876Z,45.30
2018-07-02T16:33:57.416Z,45.40
2018-07-02T16:36:25.898Z,47.00
2018-07-02T16:38:54.443Z,46.70
2018-07-02T16:41:22.960Z,45.60
2018-07-02T16:43:51.485Z,45.30
2018-07-02T16:46:19.939Z,45.20
2018-07-02T16:48:48.479Z,46.00
2018-07-02T16:51:16.939Z,45.50
2018-07-02T16:53:45.405Z,45.60
2018-07-02T16:56:13.876Z,45.90
2018-07-02T16:58:42.382Z,46.00
2018-07-02T17:01:10.937Z,45.50
2018-07-02T17:03:39.423Z,47.50
2018-07-02T17:06:08.036Z,45.70
2018-07-02T17:08:36.429Z,45.20
2018-07-02T17:11:04.962Z,45.90
2018-07-02T17:13:33.518Z,46.00
2018-07-02T17:16:02.746Z,45.80
2018-07-02T17:18:31.373Z,44.50
2018-07-02T17:20:59.908Z,44.60
2018-07-02T17:23:28.402Z,45.10
2018-07-02T17:25:57.054Z,45.90
2018-07-02T17:28:26.161Z,46.40
2018-07-02T17:30:54.639Z,46.60
2018-07-02T17:33:23.072Z,46.60
2018-07-02T17:35:51.516Z,47.20
2018-07-02T17:38:20.009Z,47.20
2018-07-02T17:40:48.487Z,47.50
2018-07-02T17:43:16.933Z,48.00
2018-07-02T17:45:45.582Z,47.30
2018-07-02T17:48:14.007Z,48.30
2018-07-02T17:50:42.488Z,48.40
2018-07-02T17:53:10.965Z,49.10
2018-07-02T17:55:39.542Z,49.00
2018-07-02T17:58:08.559Z,49.40
2018-07-02T18:00:37.148Z,50.50
2018-07-02T18:03:05.638Z,48.40
2018-07-02T18:05:34.277Z,48.10
2018-07-02T18:08:03.715Z,49.60
2018-07-02T18:10:32.225Z,48.50
2018-07-02T18:13:01.454Z,49.40
2018-07-02T18:15:30.162Z,51.20
2018-07-02T18:17:58.654Z,51.30
2018-07-02T18:20:27.265Z,51.60
2018-07-02T18:22:55.837Z,53.00
2018-07-02T18:25:24.424Z,53.90
2018-07-02T18:27:53.661Z,53.00
2018-07-02T18:30:22.121Z,53.20
2018-07-02T18:32:51.345Z,52.80
2018-07-02T18:35:19.844Z,53.70
2018-07-02T18:37:48.501Z,53.30
2018-07-02T18:40:17.083Z,53.80
2018-07-02T18:42:46.009Z,54.30
2018-07-02T18:45:14.505Z,53.80
2018-07-02T18:47:43.027Z,53.60
2018-07-02T18:50:11.478Z,54.20
2018-07-02T18:52:51.662Z,53.80
2018-07-02T18:55:20.183Z,53.70
2018-07-02T18:57:49.217Z,53.90
2018-07-02T19:00:17.643Z,54.20
2018-07-02T19:02:46.364Z,54.20
2018-07-02T19:05:14.969Z,54.30
2018-07-02T19:07:43.426Z,54.30
2018-07-02T19:10:11.982Z,54.60
2018-07-02T19:12:41.148Z,54.60
2018-07-02T19:15:09.750Z,55.00
2018-07-02T19:17:38.201Z,54.90
2018-07-02T19:20:07.259Z,55.00
2018-07-02T19:22:35.737Z,55.80
2018-07-02T19:25:05.117Z,56.30
2018-07-02T19:27:33.597Z,57.00
2018-07-02T19:30:02.170Z,57.10
2018-07-02T19:32:30.755Z,57.20
2018-07-02T19:34:59.809Z,57.30
2018-07-02T19:37:28.275Z,57.70
2018-07-02T19:39:56.917Z,57.40
2018-07-02T19:42:25.517Z,57.40
2018-07-02T19:44:54.015Z,57.60
2018-07-02T19:47:23.140Z,57.90
2018-07-02T19:49:51.709Z,58.30
2018-07-02T19:52:20.218Z,58.80
2018-07-02T19:54:48.660Z,59.00
2018-07-02T19:57:17.144Z,58.90
2018-07-02T19:59:45.669Z,59.10
2018-07-02T20:02:14.214Z,59.40
2018-07-02T20:04:42.724Z,59.70
2018-07-02T20:07:11.218Z,59.70
2018-07-02T20:09:39.639Z,59.80
2018-07-02T20:12:08.242Z,60.10
2018-07-02T20:14:36.786Z,60.00
2018-07-02T20:17:05.775Z,60.10
2018-07-02T20:19:34.374Z,60.30
2018-07-02T20:22:02.972Z,60.30
2018-07-02T20:24:32.074Z,60.20
2018-07-02T20:27:01.405Z,60.30
2018-07-02T20:29:29.837Z,60.40
2018-07-02T20:31:59.186Z,60.30
2018-07-02T20:34:27.649Z,60.80
2018-07-02T20:36:56.098Z,60.80
2018-07-02T20:39:24.601Z,61.50
2018-07-02T20:41:53.162Z,61.40
2018-07-02T20:44:21.657Z,62.40
2018-07-02T20:46:50.158Z,62.30
2018-07-02T20:49:19.365Z,62.50
2018-07-02T20:51:47.834Z,63.00
2018-07-02T20:54:16.290Z,62.90
2018-07-02T20:56:44.781Z,63.30
2018-07-02T21:08:22.979Z,63.70
2018-07-02T21:10:52.182Z,64.80
2018-07-02T21:13:22.153Z,65.20
2018-07-02T21:15:50.745Z,65.20
2018-07-02T21:18:19.248Z,65.70
2018-07-02T21:20:50.130Z,66.40
2018-07-02T21:23:19.474Z,66.90
2018-07-02T21:25:48.006Z,67.10
2018-07-02T21:28:16.461Z,67.60
2018-07-02T21:30:45.001Z,68.50
2018-07-02T21:33:13.627Z,67.80
2018-07-02T21:35:43.258Z,69.30
2018-07-02T21:38:11.718Z,69.70
2018-07-02T21:40:40.278Z,70.50
2018-07-02T21:43:08.860Z,71.00
2018-07-02T21:45:39.031Z,71.20
2018-07-02T21:48:07.863Z,71.20
2018-07-02T21:50:36.493Z,72.00
2018-07-02T21:53:05.057Z,72.90
2018-07-02T21:55:33.625Z,72.70
2018-07-02T21:58:04.511Z,73.20
2018-07-02T22:00:36.820Z,74.00
2018-07-02T22:03:07.880Z,74.10
2018-07-02T22:05:36.331Z,73.60
2018-07-02T22:08:05.335Z,73.80
2018-07-02T22:10:34.779Z,74.00
2018-07-02T22:13:03.925Z,75.00
2018-07-02T22:15:32.494Z,76.10
2018-07-02T22:18:01.689Z,75.90
2018-07-02T22:20:30.306Z,76.40
2018-07-02T22:22:59.646Z,77.70
2018-07-02T22:25:28.135Z,77.00
2018-07-02T22:27:56.709Z,77.40
2018-07-02T22:30:25.199Z,77.50
2018-07-02T22:32:53.694Z,78.20
2018-07-02T22:35:22.243Z,77.70
2018-07-02T22:37:50.795Z,78.10
2018-07-02T22:40:19.260Z,78.20
2018-07-02T22:42:47.868Z,79.00
2018-07-02T22:45:16.581Z,79.50
2018-07-02T22:47:45.075Z,79.80
2018-07-02T22:50:20.010Z,80.50
2018-07-02T22:52:49.246Z,80.70
2018-07-02T22:55:17.915Z,80.60
2018-07-02T22:57:46.368Z,80.20
2018-07-02T23:00:15.578Z,80.10
2018-07-02T23:02:44.181Z,80.10
2018-07-02T23:05:13.497Z,81.00
2018-07-02T23:07:42.761Z,81.70
2018-07-02T23:10:12.235Z,82.00
2018-07-02T23:12:40.781Z,82.50
2018-07-02T23:15:09.392Z,82.50
2018-07-02T23:17:37.928Z,82.70
2018-07-02T23:20:06.386Z,82.00
2018-07-02T23:22:55.805Z,82.20
2018-07-02T23:25:24.724Z,82.40
2018-07-02T23:27:53.346Z,82.50
2018-07-02T23:30:22.338Z,82.80
2018-07-02T23:32:50.811Z,82.60
2018-07-02T23:35:19.573Z,82.60
2018-07-02T23:37:49.708Z,82.60
2018-07-02T23:40:18.616Z,82.70
2018-07-02T23:42:47.650Z,82.90
2018-07-02T23:45:16.150Z,82.80
2018-07-02T23:47:44.646Z,82.70
2018-07-02T23:50:13.135Z,82.50
2018-07-02T23:52:41.913Z,85.60
2018-07-02T23:55:10.642Z,88.00
2018-07-02T23:57:39.254Z,84.70
